sensor_id;sensor_type;location;lat;lon;timestamp;P1;durP1;ratioP1;P2;durP2;ratioP2
6463;SDS011;3265;42.694;23.282;2023-04-30T00:01:31;31.80;;;19.20;;
6463;SDS011;3265;42.694;23.282;2023-04-30T00:03:59;30.87;;;20.37;;
6463;SDS011;3265;42.694;23.282;2023-04-30T00:06:26;31.87;;;20.07;;
6463;SDS011;3265;42.694;23.282;2023-04-30T00:08:53;32.40;;;19.60;;
6463;SDS011;3265;42.694;23.282;2023-04-30T00:11:20;31.40;;;20.13;;
6463;SDS011;3265;42.694;23.282;2023-04-30T00:13:47;29.93;;;20.03;;
6463;SDS011;3265;42.694;23.282;2023-04-30T00:16:15;32.10;;;19.43;;
6463;SDS011;3265;42.694;23.282;2023-04-30T00:18:42;31.00;;;20.07;;
6463;SDS011;3265;42.694;23.282;2023-04-30T00:21:10;32.50;;;20.67;;
6463;SDS011;3265;42.694;23.282;2023-04-30T00:23:37;36.33;;;21.03;;
6463;SDS011;3265;42.694;23.282;2023-04-30T00:26:04;35.77;;;20.73;;
6463;SDS011;3265;42.694;23.282;2023-04-30T00:28:30;36.93;;;21.90;;
6463;SDS011;3265;42.694;23.282;2023-04-30T00:30:57;35.10;;;21.73;;
6463;SDS011;3265;42.694;23.282;2023-04-30T00:33:24;39.27;;;22.97;;
6463;SDS011;3265;42.694;23.282;2023-04-30T00:35:51;43.80;;;22.77;;
6463;SDS011;3265;42.694;23.282;2023-04-30T00:38:19;35.50;;;22.10;;
6463;SDS011;3265;42.694;23.282;2023-04-30T00:40:46;35.97;;;21.43;;
6463;SDS011;3265;42.694;23.282;2023-04-30T00:43:13;29.77;;;20.67;;
6463;SDS011;3265;42.694;23.282;2023-04-30T00:45:40;49.93;;;21.60;;
6463;SDS011;3265;42.694;23.282;2023-04-30T00:48:06;32.53;;;17.13;;
6463;SDS011;3265;42.694;23.282;2023-04-30T00:50:34;37.67;;;18.93;;
6463;SDS011;3265;42.694;23.282;2023-04-30T00:53:01;26.90;;;16.93;;
6463;SDS011;3265;42.694;23.282;2023-04-30T00:55:30;22.27;;;14.77;;
6463;SDS011;3265;42.694;23.282;2023-04-30T00:57:57;23.50;;;16.23;;
6463;SDS011;3265;42.694;23.282;2023-04-30T01:00:25;24.40;;;16.70;;
6463;SDS011;3265;42.694;23.282;2023-04-30T01:02:53;29.67;;;16.67;;
6463;SDS011;3265;42.694;23.282;2023-04-30T01:05:21;24.77;;;15.37;;
6463;SDS011;3265;42.694;23.282;2023-04-30T01:07:48;23.37;;;15.53;;
6463;SDS011;3265;42.694;23.282;2023-04-30T01:10:15;27.10;;;15.47;;
6463;SDS011;3265;42.694;23.282;2023-04-30T01:12:45;26.40;;;15.20;;
6463;SDS011;3265;42.694;23.282;2023-04-30T01:15:21;25.27;;;15.83;;
6463;SDS011;3265;42.694;23.282;2023-04-30T01:17:54;24.87;;;14.23;;
6463;SDS011;3265;42.694;23.282;2023-04-30T01:20:25;26.67;;;14.73;;
6463;SDS011;3265;42.694;23.282;2023-04-30T01:22:54;21.90;;;15.10;;
6463;SDS011;3265;42.694;23.282;2023-04-30T01:28:32;20.23;;;13.93;;
6463;SDS011;3265;42.694;23.282;2023-04-30T01:31:01;22.80;;;13.53;;
6463;SDS011;3265;42.694;23.282;2023-04-30T01:33:28;23.50;;;13.80;;
6463;SDS011;3265;42.694;23.282;2023-04-30T01:36:08;19.90;;;12.97;;
6463;SDS011;3265;42.694;23.282;2023-04-30T01:38:51;23.03;;;13.63;;
6463;SDS011;3265;42.694;23.282;2023-04-30T01:41:29;23.03;;;12.93;;
6463;SDS011;3265;42.694;23.282;2023-04-30T01:44:05;24.47;;;13.27;;
6463;SDS011;3265;42.694;23.282;2023-04-30T01:46:43;22.87;;;13.30;;
6463;SDS011;3265;42.694;23.282;2023-04-30T01:49:18;24.73;;;13.43;;
6463;SDS011;3265;42.694;23.282;2023-04-30T01:51:53;23.57;;;12.87;;
6463;SDS011;3265;42.694;23.282;2023-04-30T01:54:28;24.57;;;12.93;;
6463;SDS011;3265;42.694;23.282;2023-04-30T01:57:02;27.73;;;13.43;;
6463;SDS011;3265;42.694;23.282;2023-04-30T01:59:34;22.97;;;12.97;;
6463;SDS011;3265;42.694;23.282;2023-04-30T02:02:04;22.40;;;13.53;;
6463;SDS011;3265;42.694;23.282;2023-04-30T02:04:31;21.63;;;13.47;;
6463;SDS011;3265;42.694;23.282;2023-04-30T02:06:58;22.27;;;13.20;;
6463;SDS011;3265;42.694;23.282;2023-04-30T02:09:25;21.10;;;13.37;;
6463;SDS011;3265;42.694;23.282;2023-04-30T02:11:52;23.50;;;13.47;;
6463;SDS011;3265;42.694;23.282;2023-04-30T02:14:19;20.03;;;12.37;;
6463;SDS011;3265;42.694;23.282;2023-04-30T02:16:47;26.07;;;12.53;;
6463;SDS011;3265;42.694;23.282;2023-04-30T02:19:17;19.50;;;12.13;;
6463;SDS011;3265;42.694;23.282;2023-04-30T02:21:44;20.40;;;12.70;;
6463;SDS011;3265;42.694;23.282;2023-04-30T02:24:10;21.70;;;13.67;;
6463;SDS011;3265;42.694;23.282;2023-04-30T02:26:37;17.83;;;12.40;;
6463;SDS011;3265;42.694;23.282;2023-04-30T02:29:04;31.70;;;13.90;;
6463;SDS011;3265;42.694;23.282;2023-04-30T02:31:31;21.20;;;13.77;;
6463;SDS011;3265;42.694;23.282;2023-04-30T02:33:59;21.77;;;13.53;;
6463;SDS011;3265;42.694;23.282;2023-04-30T02:36:26;27.23;;;14.90;;
6463;SDS011;3265;42.694;23.282;2023-04-30T02:38:52;19.30;;;12.83;;
6463;SDS011;3265;42.694;23.282;2023-04-30T02:41:19;26.40;;;14.37;;
6463;SDS011;3265;42.694;23.282;2023-04-30T02:43:46;23.90;;;13.17;;
6463;SDS011;3265;42.694;23.282;2023-04-30T02:46:13;23.43;;;13.77;;
6463;SDS011;3265;42.694;23.282;2023-04-30T02:48:40;26.40;;;13.97;;
6463;SDS011;3265;42.694;23.282;2023-04-30T02:51:08;23.70;;;14.10;;
6463;SDS011;3265;42.694;23.282;2023-04-30T02:53:35;24.47;;;12.67;;
6463;SDS011;3265;42.694;23.282;2023-04-30T02:56:02;28.63;;;14.20;;
6463;SDS011;3265;42.694;23.282;2023-04-30T02:58:28;24.30;;;13.10;;
6463;SDS011;3265;42.694;23.282;2023-04-30T03:00:55;23.83;;;14.33;;
6463;SDS011;3265;42.694;23.282;2023-04-30T03:03:22;28.50;;;15.90;;
6463;SDS011;3265;42.694;23.282;2023-04-30T03:05:49;26.97;;;15.73;;
6463;SDS011;3265;42.694;23.282;2023-04-30T03:08:17;25.80;;;14.70;;
6463;SDS011;3265;42.694;23.282;2023-04-30T03:10:44;23.63;;;15.10;;
6463;SDS011;3265;42.694;23.282;2023-04-30T03:13:11;25.73;;;15.50;;
6463;SDS011;3265;42.694;23.282;2023-04-30T03:15:37;24.90;;;16.17;;
6463;SDS011;3265;42.694;23.282;2023-04-30T03:18:04;24.63;;;15.97;;
6463;SDS011;3265;42.694;23.282;2023-04-30T03:20:31;28.43;;;15.70;;
6463;SDS011;3265;42.694;23.282;2023-04-30T03:22:58;30.23;;;14.90;;
6463;SDS011;3265;42.694;23.282;2023-04-30T03:25:26;27.37;;;14.13;;
6463;SDS011;3265;42.694;23.282;2023-04-30T03:27:53;31.63;;;17.97;;
6463;SDS011;3265;42.694;23.282;2023-04-30T03:30:19;36.77;;;18.17;;
6463;SDS011;3265;42.694;23.282;2023-04-30T03:32:46;38.73;;;19.20;;
6463;SDS011;3265;42.694;23.282;2023-04-30T03:35:13;37.23;;;19.23;;
6463;SDS011;3265;42.694;23.282;2023-04-30T03:37:40;33.90;;;17.47;;
6463;SDS011;3265;42.694;23.282;2023-04-30T03:40:07;36.13;;;17.67;;
6463;SDS011;3265;42.694;23.282;2023-04-30T03:42:36;42.93;;;21.13;;
6463;SDS011;3265;42.694;23.282;2023-04-30T03:45:03;49.97;;;30.13;;
6463;SDS011;3265;42.694;23.282;2023-04-30T03:47:30;54.67;;;34.00;;
6463;SDS011;3265;42.694;23.282;2023-04-30T03:49:58;50.20;;;30.17;;
6463;SDS011;3265;42.694;23.282;2023-04-30T03:52:25;42.63;;;22.40;;
6463;SDS011;3265;42.694;23.282;2023-04-30T03:54:52;40.23;;;20.90;;
6463;SDS011;3265;42.694;23.282;2023-04-30T03:57:18;35.50;;;17.00;;
6463;SDS011;3265;42.694;23.282;2023-04-30T03:59:47;26.83;;;13.73;;
6463;SDS011;3265;42.694;23.282;2023-04-30T04:02:15;21.97;;;12.60;;
6463;SDS011;3265;42.694;23.282;2023-04-30T04:04:42;19.40;;;10.47;;
6463;SDS011;3265;42.694;23.282;2023-04-30T04:07:09;14.90;;;9.73;;
6463;SDS011;3265;42.694;23.282;2023-04-30T04:09:36;17.27;;;9.73;;
6463;SDS011;3265;42.694;23.282;2023-04-30T04:12:03;16.73;;;8.70;;
6463;SDS011;3265;42.694;23.282;2023-04-30T04:14:30;14.00;;;8.13;;
6463;SDS011;3265;42.694;23.282;2023-04-30T04:16:58;11.83;;;7.93;;
6463;SDS011;3265;42.694;23.282;2023-04-30T04:19:26;10.53;;;7.40;;
6463;SDS011;3265;42.694;23.282;2023-04-30T04:21:52;11.77;;;8.13;;
6463;SDS011;3265;42.694;23.282;2023-04-30T04:24:19;14.47;;;7.60;;
6463;SDS011;3265;42.694;23.282;2023-04-30T04:26:46;13.27;;;7.73;;
6463;SDS011;3265;42.694;23.282;2023-04-30T04:29:13;12.97;;;6.97;;
6463;SDS011;3265;42.694;23.282;2023-04-30T04:31:41;13.00;;;7.23;;
6463;SDS011;3265;42.694;23.282;2023-04-30T04:34:09;10.20;;;7.17;;
6463;SDS011;3265;42.694;23.282;2023-04-30T04:36:36;10.07;;;6.60;;
6463;SDS011;3265;42.694;23.282;2023-04-30T04:39:03;8.77;;;6.90;;
6463;SDS011;3265;42.694;23.282;2023-04-30T04:41:30;11.37;;;6.80;;
6463;SDS011;3265;42.694;23.282;2023-04-30T04:43:58;9.53;;;7.10;;
6463;SDS011;3265;42.694;23.282;2023-04-30T04:46:25;10.67;;;6.60;;
6463;SDS011;3265;42.694;23.282;2023-04-30T04:48:53;12.43;;;7.23;;
6463;SDS011;3265;42.694;23.282;2023-04-30T04:51:22;12.73;;;7.67;;
6463;SDS011;3265;42.694;23.282;2023-04-30T04:53:49;15.00;;;7.37;;
6463;SDS011;3265;42.694;23.282;2023-04-30T04:56:15;13.40;;;7.77;;
6463;SDS011;3265;42.694;23.282;2023-04-30T04:58:43;11.00;;;7.37;;
6463;SDS011;3265;42.694;23.282;2023-04-30T05:01:10;11.43;;;7.57;;
6463;SDS011;3265;42.694;23.282;2023-04-30T05:03:37;16.43;;;8.53;;
6463;SDS011;3265;42.694;23.282;2023-04-30T05:06:04;13.77;;;8.33;;
6463;SDS011;3265;42.694;23.282;2023-04-30T05:08:33;11.77;;;7.90;;
6463;SDS011;3265;42.694;23.282;2023-04-30T05:11:00;11.03;;;7.63;;
6463;SDS011;3265;42.694;23.282;2023-04-30T05:13:27;14.80;;;8.13;;
6463;SDS011;3265;42.694;23.282;2023-04-30T05:15:54;15.67;;;8.60;;
6463;SDS011;3265;42.694;23.282;2023-04-30T05:18:21;13.13;;;8.20;;
6463;SDS011;3265;42.694;23.282;2023-04-30T05:20:48;14.80;;;8.73;;
6463;SDS011;3265;42.694;23.282;2023-04-30T05:23:15;14.83;;;8.83;;
6463;SDS011;3265;42.694;23.282;2023-04-30T05:25:43;14.90;;;8.73;;
6463;SDS011;3265;42.694;23.282;2023-04-30T05:28:10;18.03;;;9.90;;
6463;SDS011;3265;42.694;23.282;2023-04-30T05:30:37;16.80;;;9.23;;
6463;SDS011;3265;42.694;23.282;2023-04-30T05:33:04;15.83;;;9.00;;
6463;SDS011;3265;42.694;23.282;2023-04-30T05:35:31;15.80;;;9.50;;
6463;SDS011;3265;42.694;23.282;2023-04-30T05:38:00;16.73;;;9.63;;
6463;SDS011;3265;42.694;23.282;2023-04-30T05:40:27;17.70;;;11.10;;
6463;SDS011;3265;42.694;23.282;2023-04-30T05:42:55;18.70;;;10.03;;
6463;SDS011;3265;42.694;23.282;2023-04-30T05:45:22;25.20;;;9.70;;
6463;SDS011;3265;42.694;23.282;2023-04-30T05:47:49;14.33;;;9.87;;
6463;SDS011;3265;42.694;23.282;2023-04-30T05:50:16;13.20;;;9.57;;
6463;SDS011;3265;42.694;23.282;2023-04-30T05:52:43;18.30;;;10.17;;
6463;SDS011;3265;42.694;23.282;2023-04-30T05:55:09;15.40;;;9.50;;
6463;SDS011;3265;42.694;23.282;2023-04-30T05:57:36;17.80;;;10.47;;
6463;SDS011;3265;42.694;23.282;2023-04-30T06:00:06;17.33;;;9.80;;
6463;SDS011;3265;42.694;23.282;2023-04-30T06:02:34;24.50;;;10.87;;
6463;SDS011;3265;42.694;23.282;2023-04-30T06:05:04;18.27;;;10.57;;
6463;SDS011;3265;42.694;23.282;2023-04-30T06:07:33;16.47;;;9.93;;
6463;SDS011;3265;42.694;23.282;2023-04-30T06:10:00;16.57;;;10.30;;
6463;SDS011;3265;42.694;23.282;2023-04-30T06:12:26;18.60;;;10.93;;
6463;SDS011;3265;42.694;23.282;2023-04-30T06:14:53;15.03;;;10.63;;
6463;SDS011;3265;42.694;23.282;2023-04-30T06:17:22;23.27;;;11.90;;
6463;SDS011;3265;42.694;23.282;2023-04-30T06:19:48;20.80;;;10.90;;
6463;SDS011;3265;42.694;23.282;2023-04-30T06:22:15;19.50;;;12.57;;
6463;SDS011;3265;42.694;23.282;2023-04-30T06:24:42;21.07;;;14.00;;
6463;SDS011;3265;42.694;23.282;2023-04-30T06:27:09;27.43;;;16.57;;
6463;SDS011;3265;42.694;23.282;2023-04-30T06:29:36;30.80;;;17.40;;
6463;SDS011;3265;42.694;23.282;2023-04-30T06:32:03;23.50;;;15.70;;
6463;SDS011;3265;42.694;23.282;2023-04-30T06:34:33;25.30;;;14.40;;
6463;SDS011;3265;42.694;23.282;2023-04-30T06:37:00;21.63;;;11.80;;
6463;SDS011;3265;42.694;23.282;2023-04-30T06:39:27;17.17;;;11.20;;
6463;SDS011;3265;42.694;23.282;2023-04-30T06:41:54;21.63;;;10.73;;
6463;SDS011;3265;42.694;23.282;2023-04-30T06:44:21;17.27;;;10.07;;
6463;SDS011;3265;42.694;23.282;2023-04-30T06:46:48;16.77;;;9.30;;
6463;SDS011;3265;42.694;23.282;2023-04-30T06:49:15;21.07;;;10.00;;
6463;SDS011;3265;42.694;23.282;2023-04-30T06:51:43;14.03;;;9.70;;
6463;SDS011;3265;42.694;23.282;2023-04-30T06:54:10;19.83;;;9.90;;
6463;SDS011;3265;42.694;23.282;2023-04-30T06:56:38;16.80;;;10.07;;
6463;SDS011;3265;42.694;23.282;2023-04-30T06:59:05;17.30;;;10.43;;
6463;SDS011;3265;42.694;23.282;2023-04-30T07:01:32;17.47;;;10.20;;
6463;SDS011;3265;42.694;23.282;2023-04-30T07:03:59;18.57;;;10.17;;
6463;SDS011;3265;42.694;23.282;2023-04-30T07:06:26;20.97;;;11.53;;
6463;SDS011;3265;42.694;23.282;2023-04-30T07:08:54;16.10;;;11.13;;
6463;SDS011;3265;42.694;23.282;2023-04-30T07:11:21;19.07;;;10.90;;
6463;SDS011;3265;42.694;23.282;2023-04-30T07:13:48;21.37;;;11.23;;
6463;SDS011;3265;42.694;23.282;2023-04-30T07:16:15;17.53;;;11.17;;
6463;SDS011;3265;42.694;23.282;2023-04-30T07:18:42;22.30;;;11.53;;
6463;SDS011;3265;42.694;23.282;2023-04-30T07:21:12;18.77;;;11.93;;
6463;SDS011;3265;42.694;23.282;2023-04-30T07:23:40;23.53;;;12.70;;
6463;SDS011;3265;42.694;23.282;2023-04-30T07:26:09;21.73;;;12.30;;
6463;SDS011;3265;42.694;23.282;2023-04-30T07:28:36;26.20;;;13.50;;
6463;SDS011;3265;42.694;23.282;2023-04-30T07:31:03;21.93;;;11.43;;
6463;SDS011;3265;42.694;23.282;2023-04-30T07:33:30;21.47;;;12.03;;
6463;SDS011;3265;42.694;23.282;2023-04-30T07:35:57;17.33;;;10.60;;
6463;SDS011;3265;42.694;23.282;2023-04-30T07:38:24;16.40;;;9.80;;
6463;SDS011;3265;42.694;23.282;2023-04-30T07:40:51;25.27;;;10.23;;
6463;SDS011;3265;42.694;23.282;2023-04-30T07:43:19;21.03;;;10.27;;
6463;SDS011;3265;42.694;23.282;2023-04-30T07:45:46;19.37;;;9.67;;
6463;SDS011;3265;42.694;23.282;2023-04-30T07:48:14;16.43;;;9.30;;
6463;SDS011;3265;42.694;23.282;2023-04-30T07:50:41;11.20;;;7.93;;
6463;SDS011;3265;42.694;23.282;2023-04-30T07:53:08;12.40;;;7.67;;
6463;SDS011;3265;42.694;23.282;2023-04-30T07:55:35;16.33;;;7.37;;
6463;SDS011;3265;42.694;23.282;2023-04-30T07:58:01;14.30;;;7.50;;
6463;SDS011;3265;42.694;23.282;2023-04-30T08:00:30;9.97;;;7.03;;
6463;SDS011;3265;42.694;23.282;2023-04-30T08:02:57;13.77;;;7.97;;
6463;SDS011;3265;42.694;23.282;2023-04-30T08:05:24;15.77;;;8.33;;
6463;SDS011;3265;42.694;23.282;2023-04-30T08:07:51;13.30;;;8.03;;
6463;SDS011;3265;42.694;23.282;2023-04-30T08:10:18;11.97;;;7.60;;
6463;SDS011;3265;42.694;23.282;2023-04-30T08:12:45;8.93;;;6.17;;
6463;SDS011;3265;42.694;23.282;2023-04-30T08:15:12;8.87;;;6.03;;
6463;SDS011;3265;42.694;23.282;2023-04-30T08:17:40;9.00;;;5.90;;
6463;SDS011;3265;42.694;23.282;2023-04-30T08:20:07;8.20;;;5.83;;
6463;SDS011;3265;42.694;23.282;2023-04-30T08:22:35;9.10;;;6.23;;
6463;SDS011;3265;42.694;23.282;2023-04-30T08:25:02;10.23;;;6.50;;
6463;SDS011;3265;42.694;23.282;2023-04-30T08:27:29;10.53;;;6.83;;
6463;SDS011;3265;42.694;23.282;2023-04-30T08:29:56;15.87;;;7.20;;
6463;SDS011;3265;42.694;23.282;2023-04-30T08:32:23;12.30;;;6.13;;
6463;SDS011;3265;42.694;23.282;2023-04-30T08:34:52;10.53;;;6.03;;
6463;SDS011;3265;42.694;23.282;2023-04-30T08:37:19;10.30;;;5.80;;
6463;SDS011;3265;42.694;23.282;2023-04-30T08:39:46;16.37;;;6.10;;
6463;SDS011;3265;42.694;23.282;2023-04-30T08:42:13;8.60;;;5.80;;
6463;SDS011;3265;42.694;23.282;2023-04-30T08:44:41;9.07;;;5.67;;
6463;SDS011;3265;42.694;23.282;2023-04-30T08:47:10;9.77;;;5.47;;
6463;SDS011;3265;42.694;23.282;2023-04-30T08:49:38;10.90;;;5.73;;
6463;SDS011;3265;42.694;23.282;2023-04-30T08:52:07;7.97;;;5.07;;
6463;SDS011;3265;42.694;23.282;2023-04-30T08:54:34;7.50;;;5.87;;
6463;SDS011;3265;42.694;23.282;2023-04-30T08:57:02;8.33;;;4.90;;
6463;SDS011;3265;42.694;23.282;2023-04-30T08:59:29;11.80;;;4.97;;
6463;SDS011;3265;42.694;23.282;2023-04-30T09:01:56;9.07;;;5.30;;
6463;SDS011;3265;42.694;23.282;2023-04-30T09:04:25;10.87;;;5.27;;
6463;SDS011;3265;42.694;23.282;2023-04-30T09:06:52;8.63;;;4.73;;
6463;SDS011;3265;42.694;23.282;2023-04-30T09:09:26;11.23;;;5.97;;
6463;SDS011;3265;42.694;23.282;2023-04-30T09:12:00;7.87;;;5.50;;
6463;SDS011;3265;42.694;23.282;2023-04-30T09:14:38;6.43;;;5.20;;
6463;SDS011;3265;42.694;23.282;2023-04-30T09:17:05;8.07;;;5.73;;
6463;SDS011;3265;42.694;23.282;2023-04-30T09:19:33;8.53;;;6.03;;
6463;SDS011;3265;42.694;23.282;2023-04-30T09:22:13;6.67;;;4.87;;
6463;SDS011;3265;42.694;23.282;2023-04-30T09:24:46;6.43;;;5.10;;
6463;SDS011;3265;42.694;23.282;2023-04-30T09:27:15;7.07;;;4.70;;
6463;SDS011;3265;42.694;23.282;2023-04-30T09:29:42;6.50;;;4.90;;
6463;SDS011;3265;42.694;23.282;2023-04-30T09:32:10;10.10;;;4.90;;
6463;SDS011;3265;42.694;23.282;2023-04-30T09:34:37;8.73;;;4.90;;
6463;SDS011;3265;42.694;23.282;2023-04-30T09:37:11;9.65;;;4.85;;
6463;SDS011;3265;42.694;23.282;2023-04-30T09:39:49;5.30;;;4.73;;
6463;SDS011;3265;42.694;23.282;2023-04-30T09:42:19;5.37;;;4.73;;
6463;SDS011;3265;42.694;23.282;2023-04-30T09:44:46;7.03;;;4.80;;
6463;SDS011;3265;42.694;23.282;2023-04-30T09:47:14;9.00;;;5.33;;
6463;SDS011;3265;42.694;23.282;2023-04-30T09:49:43;8.15;;;5.13;;
6463;SDS011;3265;42.694;23.282;2023-04-30T09:52:15;5.45;;;4.78;;
6463;SDS011;3265;42.694;23.282;2023-04-30T09:54:44;8.15;;;4.93;;
6463;SDS011;3265;42.694;23.282;2023-04-30T09:57:14;5.30;;;4.78;;
6463;SDS011;3265;42.694;23.282;2023-04-30T09:59:42;6.10;;;4.53;;
6463;SDS011;3265;42.694;23.282;2023-04-30T10:02:10;6.60;;;4.97;;
6463;SDS011;3265;42.694;23.282;2023-04-30T10:04:40;6.88;;;4.63;;
6463;SDS011;3265;42.694;23.282;2023-04-30T10:07:09;7.45;;;4.55;;
6463;SDS011;3265;42.694;23.282;2023-04-30T10:09:39;6.53;;;4.95;;
6463;SDS011;3265;42.694;23.282;2023-04-30T10:12:15;8.73;;;4.97;;
6463;SDS011;3265;42.694;23.282;2023-04-30T10:14:49;6.82;;;4.38;;
6463;SDS011;3265;42.694;23.282;2023-04-30T10:17:20;5.53;;;4.45;;
6463;SDS011;3265;42.694;23.282;2023-04-30T10:19:49;6.22;;;4.50;;
6463;SDS011;3265;42.694;23.282;2023-04-30T10:22:24;11.77;;;5.38;;
6463;SDS011;3265;42.694;23.282;2023-04-30T10:24:52;7.13;;;5.07;;
6463;SDS011;3265;42.694;23.282;2023-04-30T10:27:20;10.30;;;5.10;;
6463;SDS011;3265;42.694;23.282;2023-04-30T10:29:48;9.15;;;4.97;;
6463;SDS011;3265;42.694;23.282;2023-04-30T10:32:16;6.87;;;4.40;;
6463;SDS011;3265;42.694;23.282;2023-04-30T10:34:45;6.50;;;4.60;;
6463;SDS011;3265;42.694;23.282;2023-04-30T10:37:19;7.93;;;5.00;;
6463;SDS011;3265;42.694;23.282;2023-04-30T10:39:57;10.70;;;4.60;;
6463;SDS011;3265;42.694;23.282;2023-04-30T10:42:27;6.23;;;5.20;;
6463;SDS011;3265;42.694;23.282;2023-04-30T10:44:54;9.33;;;5.90;;
6463;SDS011;3265;42.694;23.282;2023-04-30T10:47:27;10.10;;;6.55;;
6463;SDS011;3265;42.694;23.282;2023-04-30T10:50:00;8.33;;;5.87;;
6463;SDS011;3265;42.694;23.282;2023-04-30T10:52:28;5.70;;;5.10;;
6463;SDS011;3265;42.694;23.282;2023-04-30T10:54:55;6.32;;;5.70;;
6463;SDS011;3265;42.694;23.282;2023-04-30T10:57:22;5.70;;;5.07;;
6463;SDS011;3265;42.694;23.282;2023-04-30T11:02:44;7.28;;;4.80;;
6463;SDS011;3265;42.694;23.282;2023-04-30T11:05:13;6.72;;;3.97;;
6463;SDS011;3265;42.694;23.282;2023-04-30T11:07:45;5.15;;;3.78;;
6463;SDS011;3265;42.694;23.282;2023-04-30T11:10:16;5.07;;;3.60;;
6463;SDS011;3265;42.694;23.282;2023-04-30T11:12:47;4.05;;;3.40;;
6463;SDS011;3265;42.694;23.282;2023-04-30T11:15:17;6.72;;;3.78;;
6463;SDS011;3265;42.694;23.282;2023-04-30T11:17:47;6.43;;;4.03;;
6463;SDS011;3265;42.694;23.282;2023-04-30T11:20:18;7.03;;;4.65;;
6463;SDS011;3265;42.694;23.282;2023-04-30T11:22:46;6.22;;;4.20;;
6463;SDS011;3265;42.694;23.282;2023-04-30T11:25:17;7.20;;;5.38;;
6463;SDS011;3265;42.694;23.282;2023-04-30T11:27:47;10.23;;;6.97;;
6463;SDS011;3265;42.694;23.282;2023-04-30T11:30:17;6.90;;;5.43;;
6463;SDS011;3265;42.694;23.282;2023-04-30T11:32:45;9.40;;;4.90;;
6463;SDS011;3265;42.694;23.282;2023-04-30T11:35:13;5.85;;;4.30;;
6463;SDS011;3265;42.694;23.282;2023-04-30T11:37:43;8.07;;;4.65;;
6463;SDS011;3265;42.694;23.282;2023-04-30T11:40:11;4.22;;;3.83;;
6463;SDS011;3265;42.694;23.282;2023-04-30T11:42:40;7.43;;;4.28;;
6463;SDS011;3265;42.694;23.282;2023-04-30T11:45:08;6.93;;;4.20;;
6463;SDS011;3265;42.694;23.282;2023-04-30T11:47:41;6.78;;;4.00;;
6463;SDS011;3265;42.694;23.282;2023-04-30T11:50:10;4.65;;;4.13;;
6463;SDS011;3265;42.694;23.282;2023-04-30T11:52:38;6.32;;;4.10;;
6463;SDS011;3265;42.694;23.282;2023-04-30T11:55:07;7.05;;;4.05;;
6463;SDS011;3265;42.694;23.282;2023-04-30T11:57:41;6.97;;;3.70;;
6463;SDS011;3265;42.694;23.282;2023-04-30T12:00:12;5.80;;;3.60;;
6463;SDS011;3265;42.694;23.282;2023-04-30T12:02:42;6.88;;;3.97;;
6463;SDS011;3265;42.694;23.282;2023-04-30T12:05:11;5.43;;;3.65;;
6463;SDS011;3265;42.694;23.282;2023-04-30T12:07:47;9.20;;;4.63;;
6463;SDS011;3265;42.694;23.282;2023-04-30T12:10:15;6.18;;;4.10;;
6463;SDS011;3265;42.694;23.282;2023-04-30T12:12:44;4.28;;;3.72;;
6463;SDS011;3265;42.694;23.282;2023-04-30T12:15:13;5.22;;;4.22;;
6463;SDS011;3265;42.694;23.282;2023-04-30T12:17:47;5.68;;;4.15;;
6463;SDS011;3265;42.694;23.282;2023-04-30T12:20:14;4.70;;;4.30;;
6463;SDS011;3265;42.694;23.282;2023-04-30T12:22:42;7.38;;;4.68;;
6463;SDS011;3265;42.694;23.282;2023-04-30T12:25:11;7.50;;;4.97;;
6463;SDS011;3265;42.694;23.282;2023-04-30T12:27:40;10.00;;;4.45;;
6463;SDS011;3265;42.694;23.282;2023-04-30T12:30:08;6.68;;;4.03;;
6463;SDS011;3265;42.694;23.282;2023-04-30T12:32:36;4.97;;;3.60;;
6463;SDS011;3265;42.694;23.282;2023-04-30T12:35:06;5.65;;;3.80;;
6463;SDS011;3265;42.694;23.282;2023-04-30T12:37:34;6.03;;;4.20;;
6463;SDS011;3265;42.694;23.282;2023-04-30T12:40:01;4.45;;;3.75;;
6463;SDS011;3265;42.694;23.282;2023-04-30T12:42:34;5.50;;;3.85;;
6463;SDS011;3265;42.694;23.282;2023-04-30T12:45:07;7.47;;;3.90;;
6463;SDS011;3265;42.694;23.282;2023-04-30T12:47:43;6.18;;;3.50;;
6463;SDS011;3265;42.694;23.282;2023-04-30T12:50:11;8.57;;;3.90;;
6463;SDS011;3265;42.694;23.282;2023-04-30T12:52:38;7.40;;;3.47;;
6463;SDS011;3265;42.694;23.282;2023-04-30T12:55:15;5.68;;;3.25;;
6463;SDS011;3265;42.694;23.282;2023-04-30T13:00:44;6.63;;;3.63;;
6463;SDS011;3265;42.694;23.282;2023-04-30T13:03:12;5.18;;;4.30;;
6463;SDS011;3265;42.694;23.282;2023-04-30T13:05:40;6.00;;;4.30;;
6463;SDS011;3265;42.694;23.282;2023-04-30T13:08:12;9.65;;;4.93;;
6463;SDS011;3265;42.694;23.282;2023-04-30T13:10:39;5.68;;;4.32;;
6463;SDS011;3265;42.694;23.282;2023-04-30T13:13:06;5.72;;;3.63;;
6463;SDS011;3265;42.694;23.282;2023-04-30T13:15:33;6.00;;;4.35;;
6463;SDS011;3265;42.694;23.282;2023-04-30T13:18:00;5.25;;;4.20;;
6463;SDS011;3265;42.694;23.282;2023-04-30T13:20:28;8.38;;;5.18;;
6463;SDS011;3265;42.694;23.282;2023-04-30T13:22:56;7.75;;;4.30;;
6463;SDS011;3265;42.694;23.282;2023-04-30T13:25:23;6.60;;;4.55;;
6463;SDS011;3265;42.694;23.282;2023-04-30T13:27:50;7.15;;;5.03;;
6463;SDS011;3265;42.694;23.282;2023-04-30T13:30:16;4.20;;;3.80;;
6463;SDS011;3265;42.694;23.282;2023-04-30T13:32:43;5.57;;;4.10;;
6463;SDS011;3265;42.694;23.282;2023-04-30T13:35:10;4.20;;;3.80;;
6463;SDS011;3265;42.694;23.282;2023-04-30T13:37:37;9.43;;;4.17;;
6463;SDS011;3265;42.694;23.282;2023-04-30T13:40:07;8.60;;;4.20;;
6463;SDS011;3265;42.694;23.282;2023-04-30T13:42:35;6.40;;;4.00;;
6463;SDS011;3265;42.694;23.282;2023-04-30T13:45:03;4.53;;;3.77;;
6463;SDS011;3265;42.694;23.282;2023-04-30T13:47:31;5.55;;;4.10;;
6463;SDS011;3265;42.694;23.282;2023-04-30T13:49:58;4.60;;;4.10;;
6463;SDS011;3265;42.694;23.282;2023-04-30T13:52:25;6.07;;;4.00;;
6463;SDS011;3265;42.694;23.282;2023-04-30T13:54:52;5.50;;;3.80;;
6463;SDS011;3265;42.694;23.282;2023-04-30T13:57:21;8.30;;;4.38;;
6463;SDS011;3265;42.694;23.282;2023-04-30T13:59:48;6.20;;;4.00;;
6463;SDS011;3265;42.694;23.282;2023-04-30T14:02:15;4.35;;;3.92;;
6463;SDS011;3265;42.694;23.282;2023-04-30T14:04:42;5.03;;;3.80;;
6463;SDS011;3265;42.694;23.282;2023-04-30T14:07:09;6.20;;;3.90;;
6463;SDS011;3265;42.694;23.282;2023-04-30T14:09:36;6.55;;;3.90;;
6463;SDS011;3265;42.694;23.282;2023-04-30T14:12:03;5.15;;;3.88;;
6463;SDS011;3265;42.694;23.282;2023-04-30T14:14:32;6.07;;;4.20;;
6463;SDS011;3265;42.694;23.282;2023-04-30T14:16:59;5.30;;;3.88;;
6463;SDS011;3265;42.694;23.282;2023-04-30T14:19:29;4.43;;;3.85;;
6463;SDS011;3265;42.694;23.282;2023-04-30T14:21:55;6.32;;;3.78;;
6463;SDS011;3265;42.694;23.282;2023-04-30T14:24:22;4.30;;;3.60;;
6463;SDS011;3265;42.694;23.282;2023-04-30T14:26:50;6.72;;;3.75;;
6463;SDS011;3265;42.694;23.282;2023-04-30T14:29:16;5.55;;;3.80;;
6463;SDS011;3265;42.694;23.282;2023-04-30T14:31:45;4.78;;;3.65;;
6463;SDS011;3265;42.694;23.282;2023-04-30T14:34:11;5.03;;;3.70;;
6463;SDS011;3265;42.694;23.282;2023-04-30T14:36:39;6.57;;;3.97;;
6463;SDS011;3265;42.694;23.282;2023-04-30T14:39:06;7.63;;;3.88;;
6463;SDS011;3265;42.694;23.282;2023-04-30T14:41:33;8.18;;;4.97;;
6463;SDS011;3265;42.694;23.282;2023-04-30T14:44:01;6.95;;;4.97;;
6463;SDS011;3265;42.694;23.282;2023-04-30T14:46:29;4.53;;;3.55;;
6463;SDS011;3265;42.694;23.282;2023-04-30T14:49:00;4.70;;;3.70;;
6463;SDS011;3265;42.694;23.282;2023-04-30T14:51:28;5.22;;;3.80;;
6463;SDS011;3265;42.694;23.282;2023-04-30T14:53:56;7.63;;;3.70;;
6463;SDS011;3265;42.694;23.282;2023-04-30T14:56:23;6.75;;;4.22;;
6463;SDS011;3265;42.694;23.282;2023-04-30T14:58:50;5.13;;;4.00;;
6463;SDS011;3265;42.694;23.282;2023-04-30T15:01:17;7.38;;;4.10;;
6463;SDS011;3265;42.694;23.282;2023-04-30T15:03:44;6.20;;;3.60;;